Time,TemperatureF,DewpointF,PressureIn,WindDirection,WindDirectionDegrees,WindSpeedMPH,WindSpeedGustMPH,Humidity,HourlyPrecipIn,Conditions,Clouds,dailyrainin,SoftwareType,DateUTC
2013-06-10 00:04:00,70.6,69.4,30.02,SW,236,0.0,0.0,96,0.00,,,0.04,LWC V2.00 B2112,2013-06-10 04:04:00,
2013-06-10 00:09:00,70.6,69.4,30.01,SE,124,0.0,0.0,96,0.00,,,0.04,LWC V2.00 B2112,2013-06-10 04:09:00,
2013-06-10 00:14:00,70.6,69.4,30.01,SE,124,0.0,0.0,96,0.00,,,0.04,LWC V2.00 B2112,2013-06-10 04:14:00,
2013-06-10 00:19:00,70.4,69.2,30.01,SE,124,0.0,0.0,96,0.00,,,0.04,LWC V2.00 B2112,2013-06-10 04:19:00,
2013-06-10 00:24:00,70.4,69.5,30.01,South,189,0.0,0.0,97,0.00,,,0.04,LWC V2.00 B2112,2013-06-10 04:24:00,
2013-06-10 00:29:00,70.6,69.7,30.01,South,190,0.0,0.0,97,0.00,,,0.04,LWC V2.00 B2112,2013-06-10 04:29:00,
2013-06-10 00:34:00,70.6,69.7,30.01,SSW,212,0.0,0.0,97,0.00,,,0.04,LWC V2.00 B2112,2013-06-10 04:34:00,
2013-06-10 00:39:00,70.6,69.7,30.01,SSW,193,0.0,0.0,97,0.00,,,0.04,LWC V2.00 B2112,2013-06-10 04:39:00,
2013-06-10 00:44:00,70.8,69.9,30.01,SSW,193,0.0,0.0,97,0.00,,,0.00,LWC V2.00 B2112,2013-06-10 04:44:00,
2013-06-10 00:49:00,70.8,69.9,30.01,SSW,204,0.0,0.0,97,0.00,,,0.00,LWC V2.00 B2112,2013-06-10 04:49:00,
2013-06-10 00:54:00,70.8,69.9,30.01,SSE,165,0.0,0.0,97,0.00,,,0.00,LWC V2.00 B2112,2013-06-10 04:54:00,
2013-06-10 00:59:00,70.8,69.9,30.01,South,173,0.0,0.0,97,0.00,,,0.00,LWC V2.00 B2112,2013-06-10 04:59:00,
2013-06-10 01:04:00,70.8,69.9,30.01,South,173,0.0,0.0,97,0.00,,,0.00,LWC V2.00 B2112,2013-06-10 05:04:00,
2013-06-10 01:09:00,70.8,69.9,30.01,South,173,0.0,0.0,97,0.00,,,0.00,LWC V2.00 B2112,2013-06-10 05:09:00,
2013-06-10 01:14:00,70.8,69.9,30.01,ESE,113,0.0,0.0,97,0.00,,,0.00,LWC V2.00 B2112,2013-06-10 05:14:00,
2013-06-10 01:19:00,70.8,70.2,30.01,SE,129,0.0,3.0,98,0.00,,,0.00,LWC V2.00 B2112,2013-06-10 05:19:00,
2013-06-10 01:24:00,70.9,70.3,30.01,South,179,0.0,0.0,98,0.00,,,0.00,LWC V2.00 B2112,2013-06-10 05:24:00,
2013-06-10 01:29:00,70.9,70.3,30.01,SSW,205,0.0,0.0,98,0.00,,,0.00,LWC V2.00 B2112,2013-06-10 05:29:00,
2013-06-10 01:34:00,70.9,70.3,30.01,South,188,0.0,0.0,98,0.00,,,0.00,LWC V2.00 B2112,2013-06-10 05:34:00,
2013-06-10 01:39:00,70.9,70.3,30.01,ENE,78,0.0,0.0,98,0.00,,,0.00,LWC V2.00 B2112,2013-06-10 05:39:00,
2013-06-10 01:44:00,70.9,70.3,30.01,SSW,200,0.0,0.0,98,0.00,,,0.00,LWC V2.00 B2112,2013-06-10 05:44:00,
2013-06-10 01:49:00,70.8,70.2,30.01,SW,229,0.0,0.0,98,0.00,,,0.00,LWC V2.00 B2112,2013-06-10 05:49:00,
2013-06-10 01:54:00,70.8,70.2,30.00,SSW,212,0.0,0.0,98,0.00,,,0.00,LWC V2.00 B2112,2013-06-10 05:54:00,
2013-06-10 01:59:00,70.8,70.2,30.00,SW,218,0.0,3.0,98,0.00,,,0.00,LWC V2.00 B2112,2013-06-10 05:59:00,
2013-06-10 02:04:00,70.8,70.2,30.00,SW,228,0.0,0.0,98,0.00,,,0.00,LWC V2.00 B2112,2013-06-10 06:04:00,
2013-06-10 02:09:00,70.8,70.2,30.00,SSW,208,0.0,0.0,98,0.00,,,0.00,LWC V2.00 B2112,2013-06-10 06:09:00,
2013-06-10 02:14:00,70.8,70.2,30.00,SSW,212,0.0,0.0,98,0.00,,,0.00,LWC V2.00 B2112,2013-06-10 06:14:00,
2013-06-10 02:19:00,70.8,70.2,30.00,SSW,197,0.0,6.0,98,0.00,,,0.00,LWC V2.00 B2112,2013-06-10 06:19:00,
2013-06-10 02:24:00,70.8,70.2,30.00,SSE,157,0.0,0.0,98,0.00,,,0.00,LWC V2.00 B2112,2013-06-10 06:24:00,
2013-06-10 02:29:00,70.8,70.2,30.00,West,274,0.0,0.0,98,0.00,,,0.00,LWC V2.00 B2112,2013-06-10 06:29:00,
2013-06-10 02:34:00,70.8,70.2,30.00,ESE,114,0.0,0.0,98,0.00,,,0.00,LWC V2.00 B2112,2013-06-10 06:34:00,
2013-06-10 02:39:00,70.9,70.3,29.99,South,176,0.0,6.0,98,0.00,,,0.00,LWC V2.00 B2112,2013-06-10 06:39:00,
2013-06-10 02:44:00,71.1,70.5,29.99,South,190,0.0,0.0,98,0.00,,,0.00,LWC V2.00 B2112,2013-06-10 06:44:00,
2013-06-10 02:49:00,71.1,70.5,29.99,NE,46,0.0,0.0,98,0.00,,,0.00,LWC V2.00 B2112,2013-06-10 06:49:00,
2013-06-10 02:54:00,71.3,70.7,29.99,SSW,211,0.0,2.0,98,0.00,,,0.00,LWC V2.00 B2112,2013-06-10 06:54:00,
2013-06-10 02:59:00,71.3,70.7,29.99,ESE,122,0.0,5.0,98,0.00,,,0.00,LWC V2.00 B2112,2013-06-10 06:59:00,
2013-06-10 03:04:00,71.3,70.7,29.99,South,171,0.0,0.0,98,0.00,,,0.00,LWC V2.00 B2112,2013-06-10 07:04:00,
2013-06-10 03:09:00,71.5,70.9,29.99,SW,217,0.0,0.0,98,0.00,,,0.00,LWC V2.00 B2112,2013-06-10 07:09:00,
2013-06-10 03:14:00,71.5,70.9,29.99,SW,222,2.0,3.0,98,0.00,,,0.00,LWC V2.00 B2112,2013-06-10 07:14:00,
2013-06-10 03:19:00,71.5,70.9,29.99,SW,223,1.0,2.0,98,0.00,,,0.00,LWC V2.00 B2112,2013-06-10 07:19:00,
2013-06-10 03:24:00,71.5,70.9,29.99,ESE,120,0.0,3.0,98,0.00,,,0.00,LWC V2.00 B2112,2013-06-10 07:24:00,
2013-06-10 03:29:00,71.6,71.0,29.99,SW,230,0.0,1.0,98,0.00,,,0.00,LWC V2.00 B2112,2013-06-10 07:29:00,
2013-06-10 03:34:00,71.6,71.0,29.99,SSW,193,0.0,0.0,98,0.00,,,0.00,LWC V2.00 B2112,2013-06-10 07:34:00,
2013-06-10 03:39:00,71.6,71.0,29.99,SSE,159,0.0,0.0,98,0.00,,,0.00,LWC V2.00 B2112,2013-06-10 07:39:00,
2013-06-10 03:44:00,71.6,71.0,29.99,SSE,160,0.0,3.0,98,0.00,,,0.00,LWC V2.00 B2112,2013-06-10 07:44:00,
2013-06-10 03:49:00,71.6,71.0,29.99,SSW,192,0.0,0.0,98,0.00,,,0.00,LWC V2.00 B2112,2013-06-10 07:49:00,
2013-06-10 03:54:00,71.6,71.0,29.98,WSW,239,0.0,0.0,98,0.00,,,0.00,LWC V2.00 B2112,2013-06-10 07:54:00,
2013-06-10 03:59:00,71.6,71.0,29.98,SSW,201,0.0,0.0,98,0.00,,,0.00,LWC V2.00 B2112,2013-06-10 07:59:00,
2013-06-10 04:04:00,71.6,71.0,29.98,SSW,200,0.0,1.0,98,0.00,,,0.00,LWC V2.00 B2112,2013-06-10 08:04:00,
2013-06-10 04:09:00,71.6,71.0,29.98,SW,231,0.0,5.0,98,0.00,,,0.00,LWC V2.00 B2112,2013-06-10 08:09:00,
2013-06-10 04:14:00,71.6,71.0,29.98,WNW,291,0.0,6.0,98,0.00,,,0.00,LWC V2.00 B2112,2013-06-10 08:14:00,
2013-06-10 04:19:00,71.6,71.0,29.98,SW,217,0.0,4.0,98,0.00,,,0.00,LWC V2.00 B2112,2013-06-10 08:19:00,
2013-06-10 04:24:00,71.6,71.0,29.97,WSW,240,0.0,0.0,98,0.00,,,0.00,LWC V2.00 B2112,2013-06-10 08:24:00,
2013-06-10 04:29:00,71.6,71.0,29.97,SW,217,0.0,0.0,98,0.00,,,0.00,LWC V2.00 B2112,2013-06-10 08:29:00,
2013-06-10 04:34:00,71.6,71.0,29.97,SW,222,0.0,0.0,98,0.00,,,0.00,LWC V2.00 B2112,2013-06-10 08:34:00,
2013-06-10 04:39:00,71.6,71.0,29.97,SW,235,0.0,0.0,98,0.00,,,0.00,LWC V2.00 B2112,2013-06-10 08:39:00,
2013-06-10 04:44:00,71.6,71.0,29.97,SSW,210,0.0,0.0,98,0.00,,,0.00,LWC V2.00 B2112,2013-06-10 08:44:00,
2013-06-10 04:49:00,71.8,71.2,29.97,SW,231,0.0,0.0,98,0.00,,,0.00,LWC V2.00 B2112,2013-06-10 08:49:00,
2013-06-10 04:54:00,71.8,71.2,29.97,SSE,159,0.0,0.0,98,0.00,,,0.00,LWC V2.00 B2112,2013-06-10 08:54:00,
2013-06-10 04:59:00,71.8,71.2,29.97,SW,226,0.0,0.0,98,0.00,,,0.00,LWC V2.00 B2112,2013-06-10 08:59:00,
2013-06-10 05:04:00,71.8,71.2,29.97,South,179,0.0,0.0,98,0.00,,,0.00,LWC V2.00 B2112,2013-06-10 09:04:00,
2013-06-10 05:09:00,71.8,71.2,29.96,SSW,201,0.0,0.0,98,0.00,,,0.00,LWC V2.00 B2112,2013-06-10 09:09:00,
2013-06-10 05:14:00,71.8,71.2,29.96,SSW,210,0.0,4.0,98,0.00,,,0.00,LWC V2.00 B2112,2013-06-10 09:14:00,
2013-06-10 05:19:00,72.0,71.4,29.96,WSW,247,0.0,0.0,98,0.00,,,0.00,LWC V2.00 B2112,2013-06-10 09:19:00,
2013-06-10 05:24:00,72.0,71.4,29.96,SSE,159,0.0,0.0,98,0.00,,,0.00,LWC V2.00 B2112,2013-06-10 09:24:00,
2013-06-10 05:29:00,72.0,71.4,29.96,SSW,213,0.0,0.0,98,0.00,,,0.00,LWC V2.00 B2112,2013-06-10 09:29:00,
2013-06-10 05:34:00,72.0,71.4,29.96,WSW,240,0.0,0.0,98,0.00,,,0.00,LWC V2.00 B2112,2013-06-10 09:34:00,
2013-06-10 05:39:00,72.0,71.4,29.97,SW,224,0.0,0.0,98,0.00,,,0.00,LWC V2.00 B2112,2013-06-10 09:39:00,
2013-06-10 05:44:00,72.0,71.4,29.97,East,79,0.0,0.0,98,0.00,,,0.00,LWC V2.00 B2112,2013-06-10 09:44:00,
2013-06-10 05:49:00,72.0,71.4,29.97,ESE,113,0.0,2.0,98,0.00,,,0.00,LWC V2.00 B2112,2013-06-10 09:49:00,
2013-06-10 05:54:00,72.0,71.4,29.96,South,172,0.0,0.0,98,0.00,,,0.00,LWC V2.00 B2112,2013-06-10 09:54:00,
2013-06-10 05:59:00,72.0,71.1,29.96,SW,218,0.0,0.0,97,0.00,,,0.00,LWC V2.00 B2112,2013-06-10 09:59:00,
2013-06-10 06:04:00,72.0,71.4,29.96,SSW,198,0.0,0.0,98,0.00,,,0.00,LWC V2.00 B2112,2013-06-10 10:04:00,
2013-06-10 06:09:00,72.0,71.4,29.97,SW,227,0.0,0.0,98,0.00,,,0.00,LWC V2.00 B2112,2013-06-10 10:09:00,
2013-06-10 06:14:00,72.0,71.4,29.97,SW,229,0.0,0.0,98,0.00,,,0.00,LWC V2.00 B2112,2013-06-10 10:14:00,
2013-06-10 06:19:00,72.0,71.4,29.97,South,172,0.0,0.0,98,0.00,,,0.00,LWC V2.00 B2112,2013-06-10 10:19:00,
2013-06-10 06:24:00,72.1,71.5,29.96,South,184,0.0,0.0,98,0.00,,,0.00,LWC V2.00 B2112,2013-06-10 10:24:00,
2013-06-10 06:29:00,72.1,71.5,29.96,South,184,0.0,0.0,98,0.00,,,0.00,LWC V2.00 B2112,2013-06-10 10:29:00,
2013-06-10 06:34:00,72.1,71.5,29.96,SW,221,0.0,1.0,98,0.00,,,0.00,LWC V2.00 B2112,2013-06-10 10:34:00,
2013-06-10 06:39:00,72.1,71.5,29.97,East,100,0.0,0.0,98,0.00,,,0.00,LWC V2.00 B2112,2013-06-10 10:39:00,
2013-06-10 06:44:00,72.3,71.7,29.97,West,276,0.0,0.0,98,0.00,,,0.00,LWC V2.00 B2112,2013-06-10 10:44:00,
2013-06-10 06:49:00,72.3,71.7,29.97,SW,216,0.0,0.0,98,0.00,,,0.00,LWC V2.00 B2112,2013-06-10 10:49:00,
2013-06-10 06:54:00,72.3,71.7,29.97,SSW,192,0.0,0.0,98,0.00,,,0.00,LWC V2.00 B2112,2013-06-10 10:54:00,
2013-06-10 06:59:00,72.3,71.7,29.97,South,175,0.0,0.0,98,0.00,,,0.00,LWC V2.00 B2112,2013-06-10 10:59:00,
2013-06-10 07:04:00,72.5,71.9,29.97,WSW,240,0.0,0.0,98,0.00,,,0.00,LWC V2.00 B2112,2013-06-10 11:04:00,
2013-06-10 07:09:00,72.5,71.9,29.97,SW,218,0.0,0.0,98,0.00,,,0.00,LWC V2.00 B2112,2013-06-10 11:09:00,
2013-06-10 07:14:00,72.5,71.9,29.97,SSE,155,0.0,0.0,98,0.00,,,0.00,LWC V2.00 B2112,2013-06-10 11:14:00,
2013-06-10 07:19:00,72.7,72.1,29.97,SSW,195,0.0,0.0,98,0.00,,,0.00,LWC V2.00 B2112,2013-06-10 11:19:00,
2013-06-10 07:24:00,72.7,72.1,29.97,South,178,0.0,0.0,98,0.00,,,0.00,LWC V2.00 B2112,2013-06-10 11:24:00,
2013-06-10 07:29:00,72.8,72.2,29.97,SSE,167,0.0,0.0,98,0.00,,,0.00,LWC V2.00 B2112,2013-06-10 11:29:00,
2013-06-10 07:34:00,72.8,71.9,29.97,WSW,248,0.0,0.0,97,0.00,,,0.00,LWC V2.00 B2112,2013-06-10 11:34:00,
2013-06-10 07:39:00,73.0,72.1,29.96,WSW,250,0.0,0.0,97,0.00,,,0.00,LWC V2.00 B2112,2013-06-10 11:39:00,
2013-06-10 07:44:00,73.2,72.3,29.96,SW,233,0.0,0.0,97,0.00,,,0.00,LWC V2.00 B2112,2013-06-10 11:44:00,
2013-06-10 07:49:00,73.3,72.4,29.96,SW,221,0.0,3.0,97,0.00,,,0.00,LWC V2.00 B2112,2013-06-10 11:49:00,
2013-06-10 07:54:00,73.3,72.4,29.97,South,184,0.0,0.0,97,0.00,,,0.00,LWC V2.00 B2112,2013-06-10 11:54:00,
2013-06-10 07:59:00,73.3,72.1,29.97,SW,229,0.0,0.0,96,0.00,,,0.00,LWC V2.00 B2112,2013-06-10 11:59:00,
2013-06-10 08:04:00,73.3,72.1,29.97,South,190,0.0,0.0,96,0.00,,,0.00,LWC V2.00 B2112,2013-06-10 12:04:00,
2013-06-10 08:09:00,73.5,72.3,29.97,SSW,213,0.0,0.0,96,0.00,,,0.00,LWC V2.00 B2112,2013-06-10 12:09:00,
2013-06-10 08:14:00,73.5,72.3,29.97,SW,218,0.0,0.0,96,0.00,,,0.00,LWC V2.00 B2112,2013-06-10 12:14:00,
2013-06-10 08:19:00,73.5,72.3,29.97,SSE,168,0.0,0.0,96,0.00,,,0.01,LWC V2.00 B2112,2013-06-10 12:19:00,
2013-06-10 08:24:00,73.5,72.3,29.96,SSE,164,0.0,0.0,96,0.14,,,0.02,LWC V2.00 B2112,2013-06-10 12:24:00,
2013-06-10 08:29:00,73.9,73.0,29.96,SE,143,0.0,0.0,97,0.06,,,0.02,LWC V2.00 B2112,2013-06-10 12:29:00,
2013-06-10 08:34:00,74.0,73.1,29.96,South,180,0.0,0.0,97,0.04,,,0.02,LWC V2.00 B2112,2013-06-10 12:34:00,
2013-06-10 08:39:00,74.2,73.3,29.96,SW,219,0.0,0.0,97,0.00,,,0.02,LWC V2.00 B2112,2013-06-10 12:39:00,
2013-06-10 08:44:00,74.6,73.7,29.96,SSE,168,0.0,6.0,97,0.00,,,0.02,LWC V2.00 B2112,2013-06-10 12:44:00,
2013-06-10 08:49:00,74.6,73.4,29.96,SW,233,0.0,0.0,96,0.00,,,0.02,LWC V2.00 B2112,2013-06-10 12:49:00,
2013-06-10 08:54:00,74.7,73.5,29.96,WSW,237,0.0,2.0,96,0.00,,,0.02,LWC V2.00 B2112,2013-06-10 12:54:00,
2013-06-10 08:59:00,75.1,73.6,29.96,SW,224,0.0,5.0,95,0.00,,,0.02,LWC V2.00 B2112,2013-06-10 12:59:00,
2013-06-10 09:04:00,75.1,73.2,29.96,WSW,240,0.0,7.0,94,0.00,,,0.02,LWC V2.00 B2112,2013-06-10 13:04:00,
2013-06-10 09:09:00,75.1,73.2,29.97,SSE,160,0.0,0.0,94,0.00,,,0.02,LWC V2.00 B2112,2013-06-10 13:09:00,
2013-06-10 09:14:00,75.1,72.9,29.97,SSW,207,0.0,0.0,93,0.00,,,0.02,LWC V2.00 B2112,2013-06-10 13:14:00,
2013-06-10 09:19:00,75.1,72.9,29.97,SW,227,0.0,0.0,93,0.00,,,0.02,LWC V2.00 B2112,2013-06-10 13:19:00,
2013-06-10 09:24:00,75.3,73.1,29.97,SSE,162,0.0,0.0,93,0.00,,,0.02,LWC V2.00 B2112,2013-06-10 13:24:00,
2013-06-10 09:29:00,75.4,73.2,29.97,South,171,0.0,0.0,93,0.00,,,0.02,LWC V2.00 B2112,2013-06-10 13:29:00,
2013-06-10 09:34:00,75.8,73.3,29.97,SW,217,5.0,9.0,92,0.00,,,0.02,LWC V2.00 B2112,2013-06-10 13:34:00,
2013-06-10 09:39:00,76.3,73.8,29.96,SW,230,1.0,7.0,92,0.00,,,0.02,LWC V2.00 B2112,2013-06-10 13:39:00,
2013-06-10 09:44:00,76.3,72.5,29.96,WSW,240,0.0,5.0,88,0.00,,,0.02,LWC V2.00 B2112,2013-06-10 13:44:00,
2013-06-10 09:49:00,76.3,72.1,29.96,WSW,239,0.0,7.0,87,0.00,,,0.02,LWC V2.00 B2112,2013-06-10 13:49:00,
2013-06-10 09:54:00,76.3,72.1,29.96,WSW,241,0.0,1.0,87,0.00,,,0.02,LWC V2.00 B2112,2013-06-10 13:54:00,
2013-06-10 09:59:00,76.1,71.9,29.96,South,174,0.0,2.0,87,0.00,,,0.02,LWC V2.00 B2112,2013-06-10 13:59:00,
2013-06-10 10:04:00,76.1,72.3,29.96,SSE,167,0.0,0.0,88,0.00,,,0.02,LWC V2.00 B2112,2013-06-10 14:04:00,
2013-06-10 10:09:00,76.0,72.2,29.96,SW,226,0.0,0.0,88,0.00,,,0.02,LWC V2.00 B2112,2013-06-10 14:09:00,
2013-06-10 10:14:00,76.0,72.2,29.96,SW,229,0.0,0.0,88,0.00,,,0.02,LWC V2.00 B2112,2013-06-10 14:14:00,
2013-06-10 10:19:00,76.0,72.5,29.96,South,181,0.0,2.0,89,0.00,,,0.02,LWC V2.00 B2112,2013-06-10 14:19:00,
2013-06-10 10:24:00,76.3,72.8,29.96,SW,219,0.0,7.0,89,0.00,,,0.02,LWC V2.00 B2112,2013-06-10 14:24:00,
2013-06-10 10:29:00,76.7,72.9,29.96,NW,307,0.0,0.0,88,0.00,,,0.02,LWC V2.00 B2112,2013-06-10 14:29:00,
2013-06-10 10:34:00,76.8,72.6,29.96,SSW,204,0.0,0.0,87,0.00,,,0.02,LWC V2.00 B2112,2013-06-10 14:34:00,
2013-06-10 10:39:00,76.8,72.3,29.95,SSE,167,0.0,3.0,86,0.00,,,0.02,LWC V2.00 B2112,2013-06-10 14:39:00,
2013-06-10 10:44:00,76.8,72.6,29.95,WNW,296,0.0,0.0,87,0.00,,,0.02,LWC V2.00 B2112,2013-06-10 14:44:00,
2013-06-10 10:49:00,77.2,72.3,29.95,SSE,167,0.0,0.0,85,0.00,,,0.02,LWC V2.00 B2112,2013-06-10 14:49:00,
2013-06-10 10:54:00,77.6,72.7,29.96,SW,236,0.0,2.0,85,0.00,,,0.02,LWC V2.00 B2112,2013-06-10 14:54:00,
2013-06-10 10:59:00,77.7,72.5,29.96,South,169,0.0,4.0,84,0.00,,,0.02,LWC V2.00 B2112,2013-06-10 14:59:00,
2013-06-10 11:04:00,78.3,73.1,29.96,West,271,0.0,0.0,84,0.00,,,0.02,LWC V2.00 B2112,2013-06-10 15:04:00,
2013-06-10 11:09:00,79.2,72.8,29.95,West,259,0.0,0.0,81,0.00,,,0.02,LWC V2.00 B2112,2013-06-10 15:09:00,
2013-06-10 11:14:00,79.8,72.3,29.95,SW,224,0.0,7.0,78,0.00,,,0.02,LWC V2.00 B2112,2013-06-10 15:14:00,
2013-06-10 11:19:00,79.6,71.7,29.95,SSW,208,0.0,0.0,77,0.00,,,0.02,LWC V2.00 B2112,2013-06-10 15:19:00,
2013-06-10 11:24:00,79.6,72.9,29.95,SSW,193,0.0,0.0,80,0.00,,,0.02,LWC V2.00 B2112,2013-06-10 15:24:00,
2013-06-10 11:29:00,79.2,72.1,29.95,SW,231,0.0,5.0,79,0.00,,,0.02,LWC V2.00 B2112,2013-06-10 15:29:00,
2013-06-10 11:34:00,78.8,71.3,29.95,SSE,151,0.0,7.0,78,0.00,,,0.02,LWC V2.00 B2112,2013-06-10 15:34:00,
2013-06-10 11:39:00,79.2,72.8,29.93,WSW,250,0.0,3.0,81,0.00,,,0.02,LWC V2.00 B2112,2013-06-10 15:39:00,
2013-06-10 11:44:00,79.8,71.9,29.93,SSE,167,0.0,0.0,77,0.00,,,0.02,LWC V2.00 B2112,2013-06-10 15:44:00,
2013-06-10 11:49:00,79.9,71.6,29.93,SW,217,0.0,9.0,76,0.00,,,0.02,LWC V2.00 B2112,2013-06-10 15:49:00,
2013-06-10 11:54:00,79.8,71.9,29.93,WSW,243,0.0,0.0,77,0.00,,,0.02,LWC V2.00 B2112,2013-06-10 15:54:00,
2013-06-10 11:59:00,79.4,70.8,29.93,SW,219,0.0,5.0,75,0.00,,,0.02,LWC V2.00 B2112,2013-06-10 15:59:00,
2013-06-10 12:04:00,79.0,71.2,29.93,East,82,0.0,0.0,77,0.00,,,0.02,LWC V2.00 B2112,2013-06-10 16:04:00,
2013-06-10 12:09:00,78.5,71.8,29.95,SSE,155,0.0,11.0,80,0.00,,,0.03,LWC V2.00 B2112,2013-06-10 16:09:00,
2013-06-10 12:14:00,75.3,69.8,29.95,WSW,252,0.0,0.0,83,4.47,,,0.24,LWC V2.00 B2112,2013-06-10 16:14:00,
2013-06-10 12:19:00,72.8,69.4,29.95,West,262,0.0,1.0,89,0.59,,,0.39,LWC V2.00 B2112,2013-06-10 16:19:00,
2013-06-10 12:24:00,71.8,69.3,29.95,NNE,30,0.0,0.0,92,0.11,,,0.40,LWC V2.00 B2112,2013-06-10 16:24:00,
2013-06-10 12:29:00,71.5,69.7,29.95,SSE,148,0.0,0.0,94,0.29,,,0.44,LWC V2.00 B2112,2013-06-10 16:29:00,
2013-06-10 12:34:00,71.3,69.5,29.95,WSW,243,0.0,0.0,94,0.12,,,0.45,LWC V2.00 B2112,2013-06-10 16:34:00,
2013-06-10 12:39:00,71.6,70.4,29.94,NW,309,0.0,0.0,96,0.06,,,0.45,LWC V2.00 B2112,2013-06-10 16:39:00,
2013-06-10 12:44:00,72.0,70.8,29.94,SSE,154,0.0,0.0,96,0.04,,,0.45,LWC V2.00 B2112,2013-06-10 16:44:00,
2013-06-10 12:49:00,72.5,71.3,29.94,WSW,256,0.0,0.0,96,0.00,,,0.45,LWC V2.00 B2112,2013-06-10 16:49:00,
2013-06-10 12:54:00,72.7,71.5,29.92,WNW,283,0.0,4.0,96,0.00,,,0.45,LWC V2.00 B2112,2013-06-10 16:54:00,
2013-06-10 12:59:00,72.7,71.5,29.92,South,175,0.0,0.0,96,0.00,,,0.45,LWC V2.00 B2112,2013-06-10 16:59:00,
2013-06-10 13:04:00,72.7,71.5,29.92,WSW,257,0.0,0.0,96,0.00,,,0.45,LWC V2.00 B2112,2013-06-10 17:04:00,
2013-06-10 13:09:00,72.7,71.5,29.93,South,179,0.0,0.0,96,0.00,,,0.45,LWC V2.00 B2112,2013-06-10 17:09:00,
2013-06-10 13:14:00,72.8,71.6,29.93,SW,216,0.0,0.0,96,0.00,,,0.45,LWC V2.00 B2112,2013-06-10 17:14:00,
2013-06-10 13:19:00,73.2,72.0,29.93,SE,142,0.0,0.0,96,0.00,,,0.45,LWC V2.00 B2112,2013-06-10 17:19:00,
2013-06-10 13:24:00,73.5,72.3,29.91,West,275,0.0,0.0,96,0.00,,,0.45,LWC V2.00 B2112,2013-06-10 17:24:00,
2013-06-10 13:29:00,73.9,72.7,29.91,SSE,149,0.0,0.0,96,0.00,,,0.45,LWC V2.00 B2112,2013-06-10 17:29:00,
2013-06-10 13:34:00,74.7,73.2,29.91,WSW,239,0.0,1.0,95,0.00,,,0.45,LWC V2.00 B2112,2013-06-10 17:34:00,
2013-06-10 13:39:00,75.1,72.9,29.90,SSW,209,0.0,0.0,93,0.00,,,0.45,LWC V2.00 B2112,2013-06-10 17:39:00,
2013-06-10 13:44:00,75.3,72.5,29.90,SSE,164,0.0,0.0,91,0.00,,,0.45,LWC V2.00 B2112,2013-06-10 17:44:00,
2013-06-10 13:49:00,75.3,72.2,29.90,WNW,283,3.0,3.0,90,0.00,,,0.45,LWC V2.00 B2112,2013-06-10 17:49:00,
2013-06-10 13:54:00,75.3,72.5,29.90,SW,222,0.0,0.0,91,0.00,,,0.45,LWC V2.00 B2112,2013-06-10 17:54:00,
2013-06-10 13:59:00,74.9,72.4,29.90,SW,229,0.0,0.0,92,0.00,,,0.45,LWC V2.00 B2112,2013-06-10 17:59:00,
2013-06-10 14:04:00,74.6,72.1,29.90,SSE,161,0.0,3.0,92,0.00,,,0.46,LWC V2.00 B2112,2013-06-10 18:04:00,
2013-06-10 14:10:00,74.6,72.4,29.89,SW,224,0.0,0.0,93,0.00,,,0.46,LWC V2.00 B2112,2013-06-10 18:10:00,
2013-06-10 14:14:00,74.7,73.2,29.89,South,172,0.0,0.0,95,0.00,,,0.46,LWC V2.00 B2112,2013-06-10 18:14:00,
2013-06-10 14:19:00,74.9,73.1,29.89,WSW,243,0.0,0.0,94,0.00,,,0.46,LWC V2.00 B2112,2013-06-10 18:19:00,
2013-06-10 14:24:00,75.1,73.9,29.88,WSW,242,0.0,0.0,96,0.00,,,0.47,LWC V2.00 B2112,2013-06-10 18:24:00,
2013-06-10 14:29:00,75.3,74.1,29.88,SSW,195,0.0,0.0,96,0.10,,,0.48,LWC V2.00 B2112,2013-06-10 18:29:00,
2013-06-10 14:34:00,75.3,73.8,29.88,SSE,165,0.0,0.0,95,0.09,,,0.48,LWC V2.00 B2112,2013-06-10 18:34:00,
2013-06-10 14:39:00,75.6,74.4,29.87,SSE,153,0.0,0.0,96,0.05,,,0.48,LWC V2.00 B2112,2013-06-10 18:39:00,
2013-06-10 14:44:00,76.7,75.8,29.87,WNW,290,0.0,0.0,97,0.00,,,0.48,LWC V2.00 B2112,2013-06-10 18:44:00,
2013-06-10 14:49:00,77.9,77.0,29.87,SW,229,0.0,0.0,97,0.00,,,0.48,LWC V2.00 B2112,2013-06-10 18:49:00,
2013-06-10 14:54:00,78.5,76.9,29.86,SW,221,0.0,0.0,95,0.00,,,0.48,LWC V2.00 B2112,2013-06-10 18:54:00,
2013-06-10 15:00:00,78.8,76.6,29.86,West,278,2.0,2.0,93,0.00,,,0.48,LWC V2.00 B2112,2013-06-10 19:00:00,
2013-06-10 15:04:00,79.4,76.2,29.86,SW,218,4.0,6.0,90,0.00,,,0.48,LWC V2.00 B2112,2013-06-10 19:04:00,
2013-06-10 15:09:00,79.9,75.7,29.86,SW,216,0.0,9.0,87,0.00,,,0.48,LWC V2.00 B2112,2013-06-10 19:09:00,
2013-06-10 15:14:00,80.3,75.4,29.86,South,175,0.0,0.0,85,0.00,,,0.48,LWC V2.00 B2112,2013-06-10 19:14:00,
2013-06-10 15:19:00,80.9,76.7,29.86,ESE,117,0.0,0.0,87,0.00,,,0.48,LWC V2.00 B2112,2013-06-10 19:19:00,
2013-06-10 15:25:00,81.1,75.8,29.86,WNW,285,0.0,6.0,84,0.00,,,0.48,LWC V2.00 B2112,2013-06-10 19:25:00,
2013-06-10 15:34:00,81.4,73.9,29.86,SSW,206,0.0,13.0,78,0.00,,,0.48,LWC V2.00 B2112,2013-06-10 19:34:00,
2013-06-10 15:39:00,81.6,73.7,29.85,SSW,194,1.0,1.0,77,0.00,,,0.48,LWC V2.00 B2112,2013-06-10 19:39:00,
2013-06-10 15:45:00,81.6,72.9,29.85,SSW,210,0.0,11.0,75,0.00,,,0.48,LWC V2.00 B2112,2013-06-10 19:45:00,
2013-06-10 15:54:00,81.8,73.1,29.84,South,175,0.0,6.0,75,0.00,,,0.48,LWC V2.00 B2112,2013-06-10 19:54:00,
2013-06-10 15:59:00,82.0,72.9,29.84,SW,234,0.0,0.0,74,0.00,,,0.48,LWC V2.00 B2112,2013-06-10 19:59:00,
2013-06-10 16:04:00,82.2,73.5,29.84,SSW,203,0.0,0.0,75,0.00,,,0.48,LWC V2.00 B2112,2013-06-10 20:04:00,
2013-06-10 16:09:00,82.4,73.3,29.83,SSW,198,0.0,0.0,74,0.00,,,0.48,LWC V2.00 B2112,2013-06-10 20:09:00,
2013-06-10 16:14:00,82.6,73.4,29.83,North,0,0.0,0.0,74,0.00,,,0.48,LWC V2.00 B2112,2013-06-10 20:14:00,
2013-06-10 16:19:00,82.2,72.2,29.83,SW,230,0.0,7.0,72,0.00,,,0.48,LWC V2.00 B2112,2013-06-10 20:19:00,
2013-06-10 16:24:00,82.2,73.9,29.83,SSW,210,0.0,0.0,76,0.00,,,0.48,LWC V2.00 B2112,2013-06-10 20:24:00,
2013-06-10 16:30:00,82.4,73.7,29.83,WSW,254,0.0,0.0,75,0.00,,,0.48,LWC V2.00 B2112,2013-06-10 20:30:00,
2013-06-10 16:34:00,82.6,73.4,29.83,SW,224,1.0,1.0,74,0.00,,,0.48,LWC V2.00 B2112,2013-06-10 20:34:00,
2013-06-10 16:39:00,82.6,73.0,29.82,SW,217,0.0,5.0,73,0.00,,,0.48,LWC V2.00 B2112,2013-06-10 20:39:00,
2013-06-10 16:44:00,82.6,73.0,29.82,South,179,1.0,5.0,73,0.00,,,0.48,LWC V2.00 B2112,2013-06-10 20:44:00,
2013-06-10 16:49:00,82.4,72.8,29.82,SSE,154,0.0,0.0,73,0.00,,,0.48,LWC V2.00 B2112,2013-06-10 20:49:00,
2013-06-10 16:54:00,81.8,72.7,29.83,SSE,158,2.0,15.0,74,0.00,,,0.48,LWC V2.00 B2112,2013-06-10 20:54:00,
2013-06-10 16:59:00,81.2,72.9,29.83,East,91,0.0,0.0,76,0.00,,,0.48,LWC V2.00 B2112,2013-06-10 20:59:00,
2013-06-10 17:04:00,80.7,72.8,29.83,SE,127,0.0,7.0,77,0.00,,,0.48,LWC V2.00 B2112,2013-06-10 21:04:00,
2013-06-10 17:09:00,80.1,72.6,29.83,East,98,0.0,0.0,78,0.00,,,0.48,LWC V2.00 B2112,2013-06-10 21:09:00,
2013-06-10 17:14:00,79.8,72.3,29.83,WSW,246,0.0,0.0,78,0.00,,,0.48,LWC V2.00 B2112,2013-06-10 21:14:00,
2013-06-10 17:19:00,79.4,72.7,29.83,SW,224,0.0,0.0,80,0.00,,,0.48,LWC V2.00 B2112,2013-06-10 21:19:00,
2013-06-10 17:24:00,79.0,73.0,29.82,WSW,242,0.0,0.0,82,0.00,,,0.49,LWC V2.00 B2112,2013-06-10 21:24:00,
2013-06-10 17:29:00,77.9,72.7,29.82,SW,235,0.0,12.0,84,4.72,,,0.60,LWC V2.00 B2112,2013-06-10 21:29:00,
2013-06-10 17:35:00,75.6,72.1,29.82,SE,141,0.0,0.0,89,0.90,,,0.74,LWC V2.00 B2112,2013-06-10 21:35:00,
2013-06-10 17:39:00,74.6,72.1,29.84,South,188,0.0,0.0,92,1.89,,,0.83,LWC V2.00 B2112,2013-06-10 21:39:00,
2013-06-10 17:44:00,74.0,72.2,29.84,ESE,121,0.0,0.0,94,0.11,,,0.84,LWC V2.00 B2112,2013-06-10 21:44:00,
2013-06-10 17:49:00,73.9,72.4,29.84,WNW,283,0.0,0.0,95,1.20,,,0.87,LWC V2.00 B2112,2013-06-10 21:49:00,
2013-06-10 17:54:00,73.9,72.7,29.83,SSE,151,0.0,0.0,96,0.26,,,0.92,LWC V2.00 B2112,2013-06-10 21:54:00,
2013-06-10 17:59:00,74.2,73.0,29.83,WSW,252,0.0,0.0,96,0.16,,,0.93,LWC V2.00 B2112,2013-06-10 21:59:00,
2013-06-10 18:04:00,74.6,73.7,29.83,SW,235,0.0,0.0,97,0.07,,,0.93,LWC V2.00 B2112,2013-06-10 22:04:00,
2013-06-10 18:09:00,74.7,73.8,29.83,West,269,0.0,0.0,97,0.04,,,0.93,LWC V2.00 B2112,2013-06-10 22:09:00,
2013-06-10 18:14:00,74.9,74.0,29.83,SW,214,0.0,0.0,97,0.00,,,0.93,LWC V2.00 B2112,2013-06-10 22:14:00,
2013-06-10 18:19:00,75.1,74.2,29.83,SSW,209,0.0,0.0,97,0.00,,,0.93,LWC V2.00 B2112,2013-06-10 22:19:00,
2013-06-10 18:24:00,75.3,74.4,29.83,SW,228,0.0,0.0,97,0.00,,,0.93,LWC V2.00 B2112,2013-06-10 22:24:00,
2013-06-10 18:29:00,75.1,73.9,29.83,SW,217,0.0,6.0,96,0.00,,,0.93,LWC V2.00 B2112,2013-06-10 22:29:00,
2013-06-10 18:34:00,74.7,73.2,29.83,WSW,245,0.0,0.0,95,0.00,,,0.93,LWC V2.00 B2112,2013-06-10 22:34:00,
2013-06-10 18:39:00,74.6,73.1,29.83,SSE,151,0.0,0.0,95,0.00,,,0.93,LWC V2.00 B2112,2013-06-10 22:39:00,
2013-06-10 18:44:00,74.6,73.1,29.83,SW,225,0.0,0.0,95,0.00,,,0.93,LWC V2.00 B2112,2013-06-10 22:44:00,
2013-06-10 18:49:00,74.6,73.1,29.83,SSE,153,0.0,5.0,95,0.00,,,0.93,LWC V2.00 B2112,2013-06-10 22:49:00,
2013-06-10 18:54:00,74.0,72.2,29.84,WNW,291,0.0,0.0,94,0.00,,,0.93,LWC V2.00 B2112,2013-06-10 22:54:00,
2013-06-10 18:59:00,73.9,72.1,29.84,SW,224,0.0,0.0,94,0.00,,,0.93,LWC V2.00 B2112,2013-06-10 22:59:00,
2013-06-10 19:04:00,73.7,72.2,29.84,SW,217,0.0,0.0,95,0.00,,,0.93,LWC V2.00 B2112,2013-06-10 23:04:00,
2013-06-10 19:09:00,73.7,72.2,29.84,WSW,253,0.0,0.0,95,0.00,,,0.93,LWC V2.00 B2112,2013-06-10 23:09:00,
2013-06-10 19:14:00,73.5,72.0,29.84,ESE,123,0.0,0.0,95,0.00,,,0.93,LWC V2.00 B2112,2013-06-10 23:14:00,
2013-06-10 19:20:00,73.3,71.8,29.84,SSE,165,0.0,0.0,95,0.00,,,0.93,LWC V2.00 B2112,2013-06-10 23:20:00,
2013-06-10 19:24:00,73.3,71.8,29.84,SSW,198,0.0,0.0,95,0.00,,,0.93,LWC V2.00 B2112,2013-06-10 23:24:00,
2013-06-10 19:29:00,73.2,71.7,29.84,ESE,108,0.0,3.0,95,0.00,,,0.93,LWC V2.00 B2112,2013-06-10 23:29:00,
2013-06-10 19:34:00,73.0,71.5,29.84,SW,229,0.0,0.0,95,0.00,,,0.93,LWC V2.00 B2112,2013-06-10 23:34:00,
2013-06-10 19:39:00,73.0,71.5,29.84,SW,235,0.0,9.0,95,0.00,,,0.93,LWC V2.00 B2112,2013-06-10 23:39:00,
2013-06-10 19:44:00,72.8,71.3,29.84,NE,56,0.0,5.0,95,0.00,,,0.93,LWC V2.00 B2112,2013-06-10 23:44:00,
2013-06-10 19:49:00,72.7,71.5,29.84,WSW,250,0.0,5.0,96,0.00,,,0.93,LWC V2.00 B2112,2013-06-10 23:49:00,
2013-06-10 19:54:00,72.7,71.5,29.84,SW,221,0.0,6.0,96,0.00,,,0.93,LWC V2.00 B2112,2013-06-10 23:54:00,
2013-06-10 19:59:00,72.5,71.3,29.84,East,101,0.0,5.0,96,0.00,,,0.93,LWC V2.00 B2112,2013-06-10 23:59:00,
2013-06-10 20:04:00,72.5,71.3,29.84,WSW,238,0.0,3.0,96,0.00,,,0.93,LWC V2.00 B2112,2013-06-11 00:04:00,
2013-06-10 20:09:00,72.5,71.3,29.84,SW,218,0.0,0.0,96,0.00,,,0.93,LWC V2.00 B2112,2013-06-11 00:09:00,
2013-06-10 20:14:00,72.3,71.1,29.84,SW,223,0.0,0.0,96,0.00,,,0.93,LWC V2.00 B2112,2013-06-11 00:14:00,
2013-06-10 20:19:00,72.3,71.1,29.84,SW,236,0.0,0.0,96,0.00,,,0.93,LWC V2.00 B2112,2013-06-11 00:19:00,
2013-06-10 20:24:00,72.3,71.1,29.83,South,191,0.0,0.0,96,0.00,,,0.93,LWC V2.00 B2112,2013-06-11 00:24:00,
2013-06-10 20:29:00,72.3,71.1,29.83,SSW,205,0.0,0.0,96,0.00,,,0.93,LWC V2.00 B2112,2013-06-11 00:29:00,
2013-06-10 20:34:00,72.3,71.1,29.83,WSW,243,0.0,0.0,96,0.00,,,0.93,LWC V2.00 B2112,2013-06-11 00:34:00,
2013-06-10 20:39:00,72.1,70.9,29.83,WSW,245,0.0,3.0,96,0.00,,,0.93,LWC V2.00 B2112,2013-06-11 00:39:00,
2013-06-10 20:44:00,72.1,70.9,29.83,SSE,162,0.0,0.0,96,0.00,,,0.93,LWC V2.00 B2112,2013-06-11 00:44:00,
2013-06-10 20:49:00,72.1,70.9,29.83,SW,215,0.0,0.0,96,0.00,,,0.93,LWC V2.00 B2112,2013-06-11 00:49:00,
2013-06-10 20:54:00,72.1,70.9,29.83,SSW,210,0.0,4.0,96,0.00,,,0.93,LWC V2.00 B2112,2013-06-11 00:54:00,
2013-06-10 20:59:00,72.1,70.6,29.83,SE,129,0.0,0.0,95,0.00,,,0.93,LWC V2.00 B2112,2013-06-11 00:59:00,
2013-06-10 21:04:00,72.0,70.5,29.83,WSW,246,0.0,5.0,95,0.00,,,0.93,LWC V2.00 B2112,2013-06-11 01:04:00,
2013-06-10 21:09:00,72.0,70.5,29.83,SSE,161,0.0,0.0,95,0.00,,,0.93,LWC V2.00 B2112,2013-06-11 01:09:00,
2013-06-10 21:14:00,71.8,70.3,29.83,South,190,0.0,4.0,95,0.00,,,0.93,LWC V2.00 B2112,2013-06-11 01:14:00,
2013-06-10 21:19:00,71.8,70.3,29.83,SSE,162,0.0,0.0,95,0.00,,,0.93,LWC V2.00 B2112,2013-06-11 01:19:00,
2013-06-10 21:24:00,71.8,70.3,29.83,South,182,0.0,0.0,95,0.00,,,0.93,LWC V2.00 B2112,2013-06-11 01:24:00,
2013-06-10 21:29:00,71.6,70.1,29.83,West,261,0.0,0.0,95,0.00,,,0.93,LWC V2.00 B2112,2013-06-11 01:29:00,
2013-06-10 21:34:00,71.6,70.1,29.83,SSE,167,0.0,0.0,95,0.00,,,0.93,LWC V2.00 B2112,2013-06-11 01:34:00,
2013-06-10 21:39:00,71.5,70.0,29.84,SW,231,0.0,0.0,95,0.00,,,0.93,LWC V2.00 B2112,2013-06-11 01:39:00,
2013-06-10 21:44:00,71.5,70.0,29.84,SW,231,0.0,0.0,95,0.00,,,0.93,LWC V2.00 B2112,2013-06-11 01:44:00,
2013-06-10 21:49:00,71.5,70.3,29.84,SW,224,0.0,0.0,96,0.00,,,0.93,LWC V2.00 B2112,2013-06-11 01:49:00,
2013-06-10 21:54:00,71.5,70.3,29.84,SW,230,0.0,0.0,96,0.00,,,0.93,LWC V2.00 B2112,2013-06-11 01:54:00,
2013-06-10 21:59:00,71.5,70.3,29.84,SSE,156,0.0,0.0,96,0.00,,,0.93,LWC V2.00 B2112,2013-06-11 01:59:00,
2013-06-10 22:04:00,71.5,70.3,29.84,South,171,0.0,0.0,96,0.00,,,0.93,LWC V2.00 B2112,2013-06-11 02:04:00,
2013-06-10 22:09:00,71.5,70.0,29.85,SW,231,0.0,0.0,95,0.00,,,0.93,LWC V2.00 B2112,2013-06-11 02:09:00,
2013-06-10 22:14:00,71.5,70.3,29.85,South,169,0.0,2.0,96,0.00,,,0.93,LWC V2.00 B2112,2013-06-11 02:14:00,
2013-06-10 22:20:00,71.5,70.0,29.85,WNW,292,0.0,0.0,95,0.00,,,0.93,LWC V2.00 B2112,2013-06-11 02:20:00,
2013-06-10 22:24:00,71.5,70.3,29.86,SSW,192,0.0,0.0,96,0.00,,,0.93,LWC V2.00 B2112,2013-06-11 02:24:00,
2013-06-10 22:29:00,71.5,70.0,29.86,SSW,207,0.0,0.0,95,0.00,,,0.93,LWC V2.00 B2112,2013-06-11 02:29:00,
2013-06-10 22:34:00,71.5,70.3,29.86,WSW,237,0.0,5.0,96,0.00,,,0.93,LWC V2.00 B2112,2013-06-11 02:34:00,
2013-06-10 22:39:00,71.5,70.3,29.86,SW,233,0.0,0.0,96,0.00,,,0.93,LWC V2.00 B2112,2013-06-11 02:39:00,
2013-06-10 22:44:00,71.5,70.0,29.86,WSW,243,0.0,0.0,95,0.00,,,0.93,LWC V2.00 B2112,2013-06-11 02:44:00,
2013-06-10 22:49:00,71.5,70.0,29.86,South,182,0.0,0.0,95,0.00,,,0.93,LWC V2.00 B2112,2013-06-11 02:49:00,
2013-06-10 22:54:00,71.6,70.1,29.87,SSW,210,0.0,0.0,95,0.00,,,0.93,LWC V2.00 B2112,2013-06-11 02:54:00,
2013-06-10 22:59:00,71.6,70.1,29.87,SE,124,0.0,10.0,95,0.00,,,0.93,LWC V2.00 B2112,2013-06-11 02:59:00,
2013-06-10 23:04:00,71.6,70.1,29.87,WNW,302,0.0,0.0,95,0.00,,,0.93,LWC V2.00 B2112,2013-06-11 03:04:00,
2013-06-10 23:09:00,71.6,70.1,29.87,SW,220,0.0,0.0,95,0.00,,,0.93,LWC V2.00 B2112,2013-06-11 03:09:00,
2013-06-10 23:14:00,71.6,70.1,29.87,SSW,197,0.0,0.0,95,0.00,,,0.93,LWC V2.00 B2112,2013-06-11 03:14:00,
2013-06-10 23:19:00,71.6,70.1,29.87,South,185,0.0,0.0,95,0.00,,,0.93,LWC V2.00 B2112,2013-06-11 03:19:00,
2013-06-10 23:24:00,71.6,70.1,29.87,SW,219,0.0,3.0,95,0.00,,,0.93,LWC V2.00 B2112,2013-06-11 03:24:00,
2013-06-10 23:29:00,71.6,69.8,29.87,SW,236,0.0,0.0,94,0.00,,,0.93,LWC V2.00 B2112,2013-06-11 03:29:00,
2013-06-10 23:34:00,71.6,69.8,29.87,WNW,303,0.0,4.0,94,0.00,,,0.93,LWC V2.00 B2112,2013-06-11 03:34:00,
2013-06-10 23:39:00,71.6,69.8,29.86,West,276,0.0,0.0,94,0.00,,,0.93,LWC V2.00 B2112,2013-06-11 03:39:00,
2013-06-10 23:44:00,71.6,69.8,29.86,SSW,213,0.0,1.0,94,0.00,,,0.93,LWC V2.00 B2112,2013-06-11 03:44:00,
2013-06-10 23:49:00,71.6,69.8,29.86,South,172,0.0,0.0,94,0.00,,,0.93,LWC V2.00 B2112,2013-06-11 03:49:00,
2013-06-10 23:54:00,71.6,69.5,29.86,South,169,0.0,0.0,93,0.00,,,0.93,LWC V2.00 B2112,2013-06-11 03:54:00,
2013-06-10 23:59:00,71.6,69.5,29.86,South,186,0.0,11.0,93,0.00,,,0.93,LWC V2.00 B2112,2013-06-11 03:59:00,